Time;durP1;ratioP1;P1;durP2;ratioP2;P2;SDS_P1;SDS_P2;PMS_P1;PMS_P2;Temp;Humidity;BMP_temperature;BMP_pressure;BME280_temperature;BME280_humidity;BME280_pressure;Samples;Min_cycle;Max_cycle;Signal;HPM_P1;HPM_P2
2023/06/17 00:00:45;;;;;;;24.92;22.63;;;12.20;99.90;;;;;;5082933;28;20046;-70
2023/06/17 00:03:12;;;;;;;24.45;22.50;;;12.10;99.90;;;;;;5083948;28;20042;-70
2023/06/17 00:05:39;;;;;;;26.45;23.90;;;12.00;99.90;;;;;;5087382;28;20047;-70
2023/06/17 00:08:06;;;;;;;25.60;23.40;;;11.90;99.90;;;;;;5072525;28;20071;-71
2023/06/17 00:10:32;;;;;;;25.45;23.50;;;11.80;99.90;;;;;;5067799;28;20051;-70
2023/06/17 00:13:00;;;;;;;27.58;25.23;;;11.80;99.90;;;;;;5063995;28;20054;-70
2023/06/17 00:15:28;;;;;;;26.52;24.27;;;11.80;99.90;;;;;;5066993;28;20093;-70
2023/06/17 00:17:56;;;;;;;26.40;24.10;;;11.70;99.90;;;;;;5088466;28;20100;-71
2023/06/17 00:20:23;;;;;;;26.40;23.67;;;11.60;99.90;;;;;;5082354;28;20061;-70
2023/06/17 00:22:52;;;;;;;25.25;23.17;;;11.60;99.90;;;;;;5086529;28;20066;-69
2023/06/17 00:25:19;;;;;;;26.48;24.27;;;11.50;99.90;;;;;;5079234;28;20058;-70
2023/06/17 00:27:46;;;;;;;26.95;24.65;;;11.50;99.90;;;;;;5087682;28;20557;-69
2023/06/17 00:30:12;;;;;;;26.90;24.50;;;11.50;99.90;;;;;;5082980;28;20757;-70
2023/06/17 00:32:40;;;;;;;25.65;23.55;;;11.30;99.90;;;;;;5070613;28;20070;-71
2023/06/17 00:35:08;;;;;;;26.17;23.95;;;11.20;99.90;;;;;;5057143;28;20472;-72
2023/06/17 00:37:35;;;;;;;25.75;23.55;;;11.10;99.90;;;;;;5084560;28;20135;-69
2023/06/17 00:40:07;;;;;;;27.20;24.77;;;11.00;99.90;;;;;;5068353;28;20663;-70
2023/06/17 00:42:36;;;;;;;26.60;24.48;;;11.10;99.90;;;;;;5085532;28;20186;-69
2023/06/17 00:45:04;;;;;;;25.95;23.75;;;11.10;99.90;;;;;;5091457;28;20043;-70
2023/06/17 00:47:30;;;;;;;25.80;23.05;;;11.00;99.90;;;;;;5086489;28;20120;-72
2023/06/17 00:49:58;;;;;;;26.83;24.63;;;11.10;99.90;;;;;;5057843;28;20562;-70
2023/06/17 00:52:26;;;;;;;25.33;23.33;;;11.20;99.90;;;;;;5053546;28;20048;-71
2023/06/17 00:55:09;;;;;;;25.15;22.88;;;11.20;99.90;;;;;;5081269;28;20096;-71
2023/06/17 00:57:37;;;;;;;25.67;23.17;;;11.20;99.90;;;;;;5068236;28;20039;-70
2023/06/17 01:00:09;;;;;;;24.85;22.65;;;11.20;99.90;;;;;;5087948;28;20067;-71
2023/06/17 01:02:40;;;;;;;24.23;22.15;;;11.10;99.90;;;;;;5081541;28;20097;-70
2023/06/17 01:05:11;;;;;;;25.67;23.48;;;10.90;99.90;;;;;;5065279;28;20135;-71
2023/06/17 01:08:05;;;;;;;26.05;23.70;;;10.90;99.90;;;;;;5081957;28;20117;-71
2023/06/17 01:11:00;;;;;;;25.73;23.55;;;10.80;99.90;;;;;;5069673;28;20056;-71
2023/06/17 01:13:28;;;;;;;26.73;24.35;;;10.80;99.90;;;;;;5063698;28;20048;-69
2023/06/17 01:15:56;;;;;;;25.30;23.10;;;10.70;99.90;;;;;;5068653;28;20048;-70
2023/06/17 01:18:24;;;;;;;25.13;22.80;;;10.60;99.90;;;;;;5071415;28;20105;-72
2023/06/17 01:20:53;;;;;;;25.88;23.60;;;10.60;99.90;;;;;;5068876;28;20039;-69
2023/06/17 01:23:31;;;;;;;25.83;23.55;;;10.60;99.90;;;;;;5065026;28;20063;-69
2023/06/17 01:26:01;;;;;;;25.17;23.15;;;10.60;99.90;;;;;;5066380;28;20101;-70
2023/06/17 01:28:29;;;;;;;27.40;24.90;;;10.50;99.90;;;;;;5064000;28;20059;-70
2023/06/17 01:30:56;;;;;;;25.73;23.52;;;10.50;99.90;;;;;;5071072;28;20862;-70
2023/06/17 01:33:25;;;;;;;26.40;24.20;;;10.60;99.90;;;;;;5079862;28;20052;-69
2023/06/17 01:35:57;;;;;;;26.55;24.15;;;10.50;99.90;;;;;;5072551;28;20043;-70
2023/06/17 01:38:33;;;;;;;26.38;23.88;;;10.50;99.90;;;;;;5069688;28;20044;-70
2023/06/17 01:41:08;;;;;;;25.92;23.67;;;10.40;99.90;;;;;;5085352;28;20044;-69
2023/06/17 01:43:36;;;;;;;26.02;23.40;;;10.30;99.90;;;;;;5069402;28;20052;-71
2023/06/17 01:46:05;;;;;;;24.98;22.67;;;10.20;99.90;;;;;;5061633;28;20104;-70
2023/06/17 01:48:32;;;;;;;26.52;23.67;;;10.30;99.90;;;;;;5060783;28;20628;-69
2023/06/17 01:50:59;;;;;;;25.75;23.30;;;10.30;99.90;;;;;;5069771;28;20138;-72
2023/06/17 01:53:26;;;;;;;26.20;23.90;;;10.30;99.90;;;;;;5055037;28;20060;-69
2023/06/17 01:55:54;;;;;;;26.00;23.58;;;10.10;99.90;;;;;;5066782;28;20062;-69
2023/06/17 01:58:20;;;;;;;26.35;23.85;;;10.00;99.90;;;;;;5063582;28;20163;-69
2023/06/17 02:00:48;;;;;;;25.92;23.63;;;9.80;99.90;;;;;;5054977;28;20073;-72
2023/06/17 02:03:15;;;;;;;26.75;23.95;;;10.00;99.90;;;;;;5082752;28;20513;-68
2023/06/17 02:05:44;;;;;;;26.23;23.75;;;10.20;99.90;;;;;;5069088;28;20063;-70
2023/06/17 02:08:14;;;;;;;24.33;22.10;;;10.10;99.90;;;;;;5071781;28;20052;-70
2023/06/17 02:10:41;;;;;;;26.65;24.00;;;10.00;99.90;;;;;;5084417;28;20044;-70
2023/06/17 02:13:08;;;;;;;26.02;23.33;;;10.10;99.90;;;;;;5067906;28;20604;-70
2023/06/17 02:15:35;;;;;;;24.13;22.02;;;10.00;99.90;;;;;;5057208;28;20051;-70
2023/06/17 02:18:02;;;;;;;25.52;22.83;;;10.00;99.90;;;;;;5059834;28;20425;-69
2023/06/17 02:20:29;;;;;;;25.15;22.63;;;10.00;99.90;;;;;;5082311;28;20040;-70
2023/06/17 02:22:55;;;;;;;25.88;23.33;;;10.00;99.90;;;;;;5086673;28;20040;-69
2023/06/17 02:25:22;;;;;;;24.63;22.10;;;9.90;99.90;;;;;;5064887;28;20040;-69
2023/06/17 02:27:49;;;;;;;24.92;22.20;;;9.90;99.90;;;;;;5086046;28;20585;-69
2023/06/17 02:30:17;;;;;;;25.73;23.02;;;9.90;99.90;;;;;;5065830;28;20621;-69
2023/06/17 02:32:44;;;;;;;24.40;21.80;;;9.80;99.90;;;;;;5068372;28;20036;-70
2023/06/17 02:35:11;;;;;;;23.17;20.90;;;9.70;99.90;;;;;;5074764;28;20047;-70
2023/06/17 02:37:38;;;;;;;22.58;20.35;;;9.50;99.90;;;;;;5071862;28;20051;-69
2023/06/17 02:40:08;;;;;;;24.15;21.80;;;9.40;99.90;;;;;;5056060;28;20035;-71
2023/06/17 02:42:36;;;;;;;24.98;22.80;;;9.30;99.90;;;;;;5071924;28;20044;-69
2023/06/17 02:45:03;;;;;;;25.65;23.08;;;9.20;99.90;;;;;;5080719;28;20031;-69
2023/06/17 02:47:30;;;;;;;27.25;24.50;;;9.20;99.90;;;;;;5068928;28;20036;-72
2023/06/17 02:49:57;;;;;;;26.08;23.42;;;9.20;99.90;;;;;;5072820;28;20036;-70
2023/06/17 02:52:25;;;;;;;25.40;22.83;;;9.20;99.90;;;;;;5069385;28;20039;-69
2023/06/17 02:54:52;;;;;;;27.48;23.80;;;9.10;99.90;;;;;;5074984;28;20124;-70
2023/06/17 02:57:21;;;;;;;24.75;22.23;;;9.20;99.90;;;;;;5064714;28;20104;-69
2023/06/17 02:59:48;;;;;;;23.58;21.20;;;9.00;99.90;;;;;;5070800;28;20407;-70
2023/06/17 03:02:15;;;;;;;25.45;22.35;;;9.20;99.90;;;;;;5060740;28;20700;-71
2023/06/17 03:04:42;;;;;;;24.50;22.08;;;9.30;99.90;;;;;;5066629;28;20039;-70
2023/06/17 03:07:11;;;;;;;25.73;22.02;;;9.20;99.90;;;;;;5073960;28;20055;-70
2023/06/17 03:09:38;;;;;;;24.80;21.83;;;9.20;99.90;;;;;;5080047;28;21482;-70
2023/06/17 03:12:06;;;;;;;25.48;21.17;;;9.10;99.90;;;;;;5066703;28;20036;-70
2023/06/17 03:14:33;;;;;;;28.90;22.77;;;9.00;99.90;;;;;;5072531;28;20065;-70
2023/06/17 03:17:04;;;;;;;25.00;22.25;;;9.10;99.90;;;;;;5071803;28;20047;-70
2023/06/17 03:19:31;;;;;;;26.20;22.58;;;8.90;99.90;;;;;;5069651;28;20055;-69
2023/06/17 03:21:58;;;;;;;24.63;22.13;;;8.90;99.90;;;;;;5075152;28;20157;-69
2023/06/17 03:24:26;;;;;;;26.40;20.75;;;9.00;99.90;;;;;;5068660;28;20044;-71
2023/06/17 03:26:54;;;;;;;25.33;21.08;;;8.90;99.90;;;;;;5058615;28;20047;-70
2023/06/17 03:29:21;;;;;;;27.27;22.40;;;9.00;99.90;;;;;;5069443;28;20043;-69
2023/06/17 03:31:51;;;;;;;24.80;21.75;;;9.10;99.90;;;;;;5068363;28;20036;-70
2023/06/17 03:34:19;;;;;;;23.30;20.80;;;9.00;99.90;;;;;;5074254;28;20036;-69
2023/06/17 03:36:47;;;;;;;23.98;21.48;;;9.00;99.90;;;;;;5067973;28;20173;-71
2023/06/17 03:39:14;;;;;;;28.33;21.00;;;9.00;99.90;;;;;;5085454;28;20050;-72
2023/06/17 03:41:41;;;;;;;22.85;20.55;;;9.00;99.90;;;;;;5071238;28;20413;-69
2023/06/17 03:44:08;;;;;;;22.50;20.33;;;8.90;99.90;;;;;;5070818;28;20101;-70
2023/06/17 03:46:35;;;;;;;25.20;22.80;;;8.90;99.90;;;;;;5064801;28;20052;-72
2023/06/17 03:49:03;;;;;;;24.50;22.00;;;8.90;99.90;;;;;;5065554;28;20660;-70
2023/06/17 03:51:30;;;;;;;23.67;21.17;;;8.90;99.90;;;;;;5052620;28;20032;-70
2023/06/17 03:53:58;;;;;;;25.10;22.60;;;9.00;99.90;;;;;;5072741;28;20047;-70
2023/06/17 03:56:26;;;;;;;25.25;22.67;;;9.10;99.90;;;;;;5067306;28;20039;-72
2023/06/17 03:58:54;;;;;;;23.95;21.67;;;9.20;99.90;;;;;;5069234;28;20494;-70
2023/06/17 04:01:20;;;;;;;24.13;21.60;;;9.30;99.90;;;;;;5067799;28;20662;-69
2023/06/17 04:03:47;;;;;;;24.13;21.33;;;9.40;99.90;;;;;;5081448;28;20421;-71
2023/06/17 04:06:14;;;;;;;23.98;21.45;;;9.30;99.90;;;;;;5079583;28;20139;-70
2023/06/17 04:08:43;;;;;;;24.10;21.60;;;9.20;99.90;;;;;;5067811;28;20051;-70
2023/06/17 04:11:13;;;;;;;23.88;21.60;;;9.10;99.90;;;;;;5056361;28;20453;-70
2023/06/17 04:13:40;;;;;;;24.35;21.85;;;9.10;99.90;;;;;;5085442;28;20123;-69
2023/06/17 04:16:07;;;;;;;25.77;23.38;;;9.40;99.90;;;;;;5069655;28;20043;-70
2023/06/17 04:18:33;;;;;;;24.65;22.08;;;9.30;99.90;;;;;;5070393;28;20559;-72
2023/06/17 04:21:01;;;;;;;25.90;23.17;;;9.40;99.90;;;;;;5070035;28;20067;-69
2023/06/17 04:23:30;;;;;;;25.95;23.35;;;9.40;99.90;;;;;;5065388;28;20044;-70
2023/06/17 04:26:00;;;;;;;25.88;23.23;;;9.40;99.90;;;;;;5066707;28;20043;-70
2023/06/17 04:28:32;;;;;;;24.08;21.58;;;9.40;99.90;;;;;;5052858;28;20551;-72
2023/06/17 04:31:01;;;;;;;23.30;20.98;;;9.60;99.90;;;;;;5062959;28;20111;-70
2023/06/17 04:33:30;;;;;;;23.98;21.48;;;9.90;99.90;;;;;;5067735;28;20047;-70
2023/06/17 04:35:59;;;;;;;23.02;21.08;;;10.30;99.90;;;;;;5070171;28;20448;-69
2023/06/17 04:38:26;;;;;;;26.55;23.83;;;10.60;99.90;;;;;;5067506;28;20040;-70
2023/06/17 04:40:53;;;;;;;26.73;24.48;;;11.10;99.90;;;;;;5069851;28;20040;-70
2023/06/17 04:43:22;;;;;;;27.75;24.95;;;11.50;99.90;;;;;;5068391;28;20040;-69
2023/06/17 04:45:51;;;;;;;27.05;24.45;;;11.60;99.90;;;;;;5053700;28;20141;-71
2023/06/17 04:48:19;;;;;;;27.27;24.88;;;11.50;99.90;;;;;;5072025;28;20044;-72
2023/06/17 04:50:47;;;;;;;27.73;25.35;;;11.70;99.90;;;;;;5065555;28;20055;-73
2023/06/17 04:53:14;;;;;;;27.02;24.83;;;12.10;99.90;;;;;;5067227;28;20075;-70
2023/06/17 04:55:41;;;;;;;29.02;26.92;;;12.50;99.90;;;;;;5064183;28;20464;-69
2023/06/17 04:58:09;;;;;;;32.63;29.88;;;12.90;99.90;;;;;;5067458;28;20040;-70
2023/06/17 05:00:43;;;;;;;29.98;27.75;;;13.40;99.90;;;;;;5066331;28;20040;-70
2023/06/17 05:03:14;;;;;;;30.80;28.30;;;14.00;99.90;;;;;;5069954;28;20489;-70
2023/06/17 05:05:41;;;;;;;32.20;29.60;;;13.90;99.90;;;;;;5063692;28;20067;-69
2023/06/17 05:08:08;;;;;;;32.30;29.70;;;14.00;99.90;;;;;;5087066;28;20058;-70
2023/06/17 05:10:35;;;;;;;34.92;31.92;;;14.20;99.90;;;;;;5083331;28;20051;-70
2023/06/17 05:13:02;;;;;;;35.28;32.55;;;14.60;99.90;;;;;;5078539;28;20113;-69
2023/06/17 05:15:31;;;;;;;35.22;32.20;;;15.00;99.90;;;;;;5063133;28;20044;-70
2023/06/17 05:17:58;;;;;;;34.05;31.45;;;15.10;99.90;;;;;;5066157;28;20043;-70
2023/06/17 05:20:24;;;;;;;36.15;33.20;;;15.20;99.90;;;;;;5086030;28;20048;-70
2023/06/17 05:22:51;;;;;;;35.85;32.83;;;15.40;99.90;;;;;;5068624;28;20062;-70
2023/06/17 05:25:18;;;;;;;35.78;32.95;;;15.60;99.90;;;;;;5070210;28;20042;-70
2023/06/17 05:27:45;;;;;;;35.72;32.75;;;15.70;99.90;;;;;;5066447;28;20052;-70
2023/06/17 05:30:13;;;;;;;37.65;34.65;;;16.10;99.90;;;;;;5070522;28;20042;-70
2023/06/17 05:32:42;;;;;;;37.42;34.33;;;16.30;99.90;;;;;;5068199;28;20062;-70
2023/06/17 05:35:09;;;;;;;36.92;34.08;;;16.50;99.90;;;;;;5068078;28;20126;-69
2023/06/17 05:37:36;;;;;;;36.70;33.38;;;16.60;99.90;;;;;;5067394;28;20067;-70
2023/06/17 05:40:04;;;;;;;37.20;34.35;;;16.60;99.90;;;;;;5066928;28;20032;-69
2023/06/17 05:42:33;;;;;;;36.78;33.88;;;16.70;99.90;;;;;;5061011;28;20131;-70
2023/06/17 05:45:00;;;;;;;38.13;35.13;;;16.90;99.90;;;;;;5053220;28;20079;-70
2023/06/17 05:47:28;;;;;;;39.30;36.20;;;16.90;99.90;;;;;;5068389;28;20036;-69
2023/06/17 05:49:56;;;;;;;38.75;35.65;;;17.30;99.90;;;;;;5067637;28;20123;-70
2023/06/17 05:52:24;;;;;;;38.15;35.45;;;17.50;99.90;;;;;;5082855;28;20063;-69
2023/06/17 05:54:51;;;;;;;38.67;35.53;;;17.80;99.90;;;;;;5047431;28;20536;-69
2023/06/17 05:57:17;;;;;;;39.40;36.55;;;17.90;99.90;;;;;;5069567;28;20032;-70
2023/06/17 05:59:45;;;;;;;41.40;38.25;;;18.10;99.90;;;;;;5064409;28;20040;-70
2023/06/17 06:02:11;;;;;;;40.03;37.13;;;18.40;99.90;;;;;;5068550;28;20048;-70
2023/06/17 06:04:38;;;;;;;39.40;36.38;;;18.50;99.90;;;;;;5048637;28;20036;-69
2023/06/17 06:07:05;;;;;;;41.00;37.85;;;18.70;99.90;;;;;;5067485;28;20048;-69
2023/06/17 06:09:31;;;;;;;40.10;37.10;;;18.90;99.90;;;;;;5063881;28;20706;-70
2023/06/17 06:11:58;;;;;;;40.80;37.58;;;19.20;99.90;;;;;;5074778;28;20509;-69
2023/06/17 06:14:25;;;;;;;40.72;37.83;;;19.10;99.90;;;;;;5069483;28;20045;-70
2023/06/17 06:16:55;;;;;;;41.67;38.40;;;19.10;99.90;;;;;;5070040;28;20044;-69
2023/06/17 06:19:22;;;;;;;41.50;38.20;;;19.10;99.90;;;;;;5071542;28;20833;-71
2023/06/17 06:21:53;;;;;;;42.67;39.47;;;19.00;99.90;;;;;;5066767;28;20078;-71
2023/06/17 06:24:20;;;;;;;43.33;39.95;;;19.00;99.90;;;;;;5058577;28;20425;-71
2023/06/17 06:26:48;;;;;;;41.92;38.88;;;19.10;99.90;;;;;;5072380;28;20039;-71
2023/06/17 06:29:15;;;;;;;41.67;38.78;;;18.90;99.90;;;;;;5069842;28;20089;-71
2023/06/17 06:31:43;;;;;;;41.30;38.25;;;18.90;99.90;;;;;;5067053;28;20048;-70
2023/06/17 06:34:12;;;;;;;42.58;39.45;;;19.00;99.90;;;;;;5066888;28;20702;-71
2023/06/17 06:36:39;;;;;;;42.22;39.10;;;19.20;99.90;;;;;;5070547;28;20090;-72
2023/06/17 06:39:06;;;;;;;44.38;41.38;;;19.30;99.90;;;;;;5071240;28;20036;-71
2023/06/17 06:41:33;;;;;;;44.83;41.45;;;19.30;99.90;;;;;;5054302;28;20047;-69
2023/06/17 06:44:14;;;;;;;43.38;40.38;;;19.40;99.90;;;;;;5068902;28;20885;-70
2023/06/17 06:46:41;;;;;;;44.42;41.05;;;19.40;99.90;;;;;;5064656;28;20097;-69
2023/06/17 06:49:08;;;;;;;42.47;39.70;;;19.60;99.90;;;;;;5073451;28;20058;-70
2023/06/17 06:51:36;;;;;;;44.95;41.92;;;19.70;99.90;;;;;;5064070;28;20105;-72
2023/06/17 06:54:04;;;;;;;43.78;40.90;;;19.70;99.90;;;;;;5069078;28;20044;-70
2023/06/17 06:56:31;;;;;;;43.25;40.35;;;20.00;99.90;;;;;;5070265;28;20040;-70
2023/06/17 06:58:59;;;;;;;44.60;41.13;;;20.10;99.90;;;;;;5087481;28;20047;-71
2023/06/17 07:01:30;;;;;;;43.75;40.65;;;20.40;99.90;;;;;;5073150;28;20048;-70
2023/06/17 07:03:58;;;;;;;43.75;40.30;;;20.20;99.90;;;;;;5062672;28;20101;-72
2023/06/17 07:06:25;;;;;;;43.78;40.67;;;20.20;99.90;;;;;;5073208;28;20039;-70
2023/06/17 07:08:52;;;;;;;42.38;39.38;;;20.40;99.90;;;;;;5073318;28;20170;-72
2023/06/17 07:11:20;;;;;;;43.30;40.28;;;20.50;99.90;;;;;;5060567;28;20629;-75
2023/06/17 07:13:47;;;;;;;44.95;41.97;;;20.70;99.90;;;;;;5065756;28;20040;-76
2023/06/17 07:16:14;;;;;;;43.75;40.58;;;20.70;99.90;;;;;;5070766;28;20033;-76
2023/06/17 07:18:41;;;;;;;43.85;40.67;;;20.60;99.90;;;;;;5072584;28;20036;-75
2023/06/17 07:21:08;;;;;;;43.30;40.20;;;20.60;99.90;;;;;;5077916;28;20490;-75
2023/06/17 07:23:35;;;;;;;46.25;43.05;;;20.70;99.90;;;;;;5074759;28;20064;-75
2023/06/17 07:26:01;;;;;;;45.28;42.30;;;20.90;99.90;;;;;;5078085;28;20039;-76
2023/06/17 07:28:29;;;;;;;44.33;41.17;;;20.90;99.90;;;;;;5080054;28;20109;-76
2023/06/17 07:30:56;;;;;;;43.42;40.42;;;20.80;99.90;;;;;;5078052;28;20544;-76
2023/06/17 07:33:22;;;;;;;43.13;40.35;;;20.70;99.90;;;;;;5091444;28;20071;-77
2023/06/17 07:35:49;;;;;;;45.95;42.67;;;20.80;99.90;;;;;;5086340;28;20081;-76
2023/06/17 07:38:16;;;;;;;45.08;42.22;;;21.00;99.90;;;;;;5072168;28;20060;-76
2023/06/17 07:40:43;;;;;;;47.20;44.00;;;21.10;99.90;;;;;;5068912;28;20043;-77
2023/06/17 07:43:09;;;;;;;45.85;42.95;;;21.20;99.90;;;;;;5058467;28;20100;-76
2023/06/17 07:45:36;;;;;;;45.33;42.05;;;21.30;99.90;;;;;;5081202;28;20055;-75
2023/06/17 07:48:03;;;;;;;44.95;42.15;;;21.30;99.90;;;;;;5072333;28;20047;-76
2023/06/17 07:50:30;;;;;;;46.15;43.25;;;20.90;99.90;;;;;;5071669;28;20144;-76
2023/06/17 07:52:57;;;;;;;46.00;42.78;;;20.90;99.90;;;;;;5090662;28;21021;-76
2023/06/17 07:55:23;;;;;;;45.13;42.20;;;21.10;99.90;;;;;;5087553;28;20044;-76
2023/06/17 07:57:50;;;;;;;47.35;44.20;;;21.20;99.90;;;;;;5072738;28;20040;-76
2023/06/17 08:00:17;;;;;;;46.28;43.42;;;21.40;99.90;;;;;;5085754;28;20048;-77
2023/06/17 08:02:45;;;;;;;45.88;42.33;;;21.50;99.90;;;;;;5054947;28;20060;-77
2023/06/17 08:05:12;;;;;;;47.30;44.35;;;21.70;99.90;;;;;;5088742;28;20044;-77
2023/06/17 08:07:39;;;;;;;47.72;44.72;;;22.20;99.90;;;;;;5054356;28;20054;-77
2023/06/17 08:10:06;;;;;;;47.10;44.00;;;22.30;99.90;;;;;;5087885;28;20100;-76
2023/06/17 08:12:38;;;;;;;46.92;43.88;;;22.20;99.90;;;;;;5064849;28;20082;-76
2023/06/17 08:15:05;;;;;;;44.47;41.45;;;22.30;99.90;;;;;;5057551;28;20075;-77
2023/06/17 08:17:32;;;;;;;49.30;46.10;;;22.10;99.90;;;;;;5069472;28;20040;-73
2023/06/17 08:19:59;;;;;;;47.97;44.88;;;22.00;99.90;;;;;;5087906;28;20622;-74
2023/06/17 08:22:26;;;;;;;47.53;44.38;;;22.00;99.90;;;;;;5087076;28;20097;-72
2023/06/17 08:24:53;;;;;;;46.17;43.10;;;22.10;99.90;;;;;;5081473;28;20072;-73
2023/06/17 08:27:20;;;;;;;48.80;45.50;;;22.00;99.90;;;;;;5067041;28;20851;-73
2023/06/17 08:29:47;;;;;;;47.65;44.45;;;22.00;99.90;;;;;;5069237;28;20051;-73
2023/06/17 08:32:14;;;;;;;46.30;43.35;;;22.20;99.90;;;;;;5079812;28;20125;-73
2023/06/17 08:34:41;;;;;;;47.30;44.25;;;22.50;99.90;;;;;;5081383;28;20040;-73
2023/06/17 08:37:08;;;;;;;48.10;45.00;;;22.80;99.90;;;;;;5087382;28;20036;-73
2023/06/17 08:39:39;;;;;;;49.28;46.15;;;22.70;99.90;;;;;;5071291;28;20024;-72
2023/06/17 08:42:08;;;;;;;48.15;44.83;;;22.90;99.90;;;;;;5085206;28;20044;-71
2023/06/17 08:44:38;;;;;;;45.30;42.33;;;22.90;99.90;;;;;;5058568;28;20043;-71
2023/06/17 08:47:06;;;;;;;46.60;43.38;;;22.80;99.90;;;;;;5051372;28;20078;-71
2023/06/17 08:49:33;;;;;;;49.42;45.97;;;22.90;99.90;;;;;;5087670;28;20034;-71
2023/06/17 08:52:02;;;;;;;50.42;47.13;;;22.90;99.90;;;;;;5065726;28;20120;-73
2023/06/17 08:54:32;;;;;;;49.45;45.85;;;22.50;99.90;;;;;;5070103;28;20042;-72
2023/06/17 08:56:59;;;;;;;49.92;46.83;;;22.40;99.90;;;;;;5073716;28;20044;-71
2023/06/17 08:59:26;;;;;;;49.40;46.00;;;22.40;99.90;;;;;;5072463;28;20032;-72
2023/06/17 09:01:53;;;;;;;49.22;45.80;;;22.90;99.90;;;;;;5070827;28;20067;-71
2023/06/17 09:04:21;;;;;;;50.08;47.05;;;23.20;99.90;;;;;;5070045;28;20031;-73
2023/06/17 09:06:48;;;;;;;49.50;46.17;;;23.50;99.90;;;;;;5065621;28;20075;-72
2023/06/17 09:09:15;;;;;;;49.85;46.53;;;23.50;99.90;;;;;;5083302;28;20052;-71
2023/06/17 09:11:49;;;;;;;49.38;46.08;;;23.70;99.90;;;;;;5080253;28;20051;-71
2023/06/17 09:14:21;;;;;;;47.33;44.22;;;23.60;99.90;;;;;;5089486;28;20047;-71
2023/06/17 09:16:50;;;;;;;48.53;45.22;;;23.50;99.90;;;;;;5065763;28;20586;-72
2023/06/17 09:19:17;;;;;;;49.28;46.28;;;23.90;99.90;;;;;;5065191;28;20117;-71
2023/06/17 09:21:47;;;;;;;47.70;44.80;;;24.10;99.90;;;;;;5075522;28;20058;-70
2023/06/17 09:24:14;;;;;;;48.58;45.70;;;24.20;99.90;;;;;;5086122;28;20631;-71
2023/06/17 09:26:42;;;;;;;48.60;45.58;;;24.60;99.90;;;;;;5071647;28;20040;-70
2023/06/17 09:29:11;;;;;;;50.13;46.88;;;24.80;99.90;;;;;;5071326;28;20675;-70
2023/06/17 09:31:52;;;;;;;50.45;47.25;;;24.50;99.90;;;;;;5077051;28;20060;-71
2023/06/17 09:34:20;;;;;;;50.13;47.13;;;24.30;99.90;;;;;;5085697;28;20402;-73
2023/06/17 09:37:00;;;;;;;51.35;48.08;;;24.60;99.90;;;;;;5081606;28;20089;-70
2023/06/17 09:39:32;;;;;;;52.00;49.00;;;24.70;99.90;;;;;;5091186;28;20121;-72
2023/06/17 09:42:10;;;;;;;51.45;48.00;;;24.50;99.90;;;;;;5091661;28;20049;-70
2023/06/17 09:44:39;;;;;;;49.95;46.95;;;24.80;99.90;;;;;;5057861;28;20040;-71
2023/06/17 09:47:07;;;;;;;51.25;47.78;;;25.10;99.90;;;;;;5072291;28;20043;-70
2023/06/17 09:49:35;;;;;;;52.47;48.90;;;25.20;99.90;;;;;;5076164;28;20040;-71
2023/06/17 09:52:05;;;;;;;50.20;46.92;;;25.30;99.90;;;;;;5089123;28;20097;-71
2023/06/17 09:54:33;;;;;;;50.55;47.33;;;25.30;99.90;;;;;;5089346;28;20047;-70
2023/06/17 09:57:01;;;;;;;49.00;45.95;;;25.30;99.90;;;;;;5056115;28;20044;-70
2023/06/17 09:59:28;;;;;;;51.55;48.20;;;25.40;99.90;;;;;;5073544;28;20126;-70
2023/06/17 10:01:56;;;;;;;52.20;48.95;;;25.60;99.90;;;;;;5066703;28;20108;-71
2023/06/17 10:04:22;;;;;;;50.10;46.78;;;25.40;99.90;;;;;;5085451;28;20039;-70
2023/06/17 10:06:50;;;;;;;51.13;47.70;;;25.30;99.90;;;;;;5088957;28;20050;-72
2023/06/17 10:09:17;;;;;;;49.60;46.35;;;24.90;99.90;;;;;;5073213;28;20051;-72
2023/06/17 10:11:47;;;;;;;50.30;47.10;;;25.00;99.90;;;;;;5090830;28;20037;-71
2023/06/17 10:14:21;;;;;;;50.13;47.00;;;25.20;99.90;;;;;;5070615;28;20047;-74
2023/06/17 10:16:50;;;;;;;50.50;47.50;;;25.40;99.90;;;;;;5052609;28;20042;-72
2023/06/17 10:19:22;;;;;;;52.00;48.80;;;25.30;99.90;;;;;;5090986;28;20606;-72
2023/06/17 10:21:52;;;;;;;51.28;48.28;;;25.50;99.90;;;;;;5066780;28;20097;-73
2023/06/17 10:24:21;;;;;;;51.10;48.20;;;25.90;99.90;;;;;;5069394;28;20055;-73
2023/06/17 10:26:52;;;;;;;54.22;51.13;;;25.90;99.90;;;;;;5083100;28;20065;-72
2023/06/17 10:29:20;;;;;;;52.08;48.85;;;25.90;99.90;;;;;;5068950;28;20044;-73
2023/06/17 10:31:47;;;;;;;51.83;48.83;;;25.70;99.90;;;;;;5084707;28;20062;-72
2023/06/17 10:34:15;;;;;;;52.47;49.25;;;25.90;99.90;;;;;;5076125;28;20032;-72
2023/06/17 10:36:47;;;;;;;55.13;51.80;;;25.60;99.90;;;;;;5072955;28;20032;-73
2023/06/17 10:39:13;;;;;;;52.25;48.67;;;25.60;99.90;;;;;;5072608;28;20463;-72
2023/06/17 10:41:40;;;;;;;49.90;46.92;;;25.50;99.90;;;;;;5069737;28;20127;-72
2023/06/17 10:44:30;;;;;;;51.83;48.55;;;25.60;99.90;;;;;;5080551;28;20116;-71
2023/06/17 10:46:57;;;;;;;54.15;51.00;;;25.30;99.90;;;;;;5069831;28;20044;-72
2023/06/17 10:49:24;;;;;;;51.72;48.63;;;25.10;99.90;;;;;;5089317;28;20558;-73
2023/06/17 10:51:57;;;;;;;52.22;49.00;;;25.50;99.90;;;;;;5068973;28;20043;-72
2023/06/17 10:54:32;;;;;;;51.88;48.60;;;25.60;99.90;;;;;;5087057;28;20040;-72
2023/06/17 10:57:00;;;;;;;52.42;49.47;;;25.80;99.90;;;;;;5053980;28;20118;-72
2023/06/17 10:59:29;;;;;;;52.92;49.85;;;25.70;99.90;;;;;;5088122;28;20618;-72
2023/06/17 11:02:03;;;;;;;52.35;49.33;;;26.00;99.90;;;;;;5070105;28;20048;-74
2023/06/17 11:04:31;;;;;;;55.83;52.70;;;26.40;99.90;;;;;;5073346;28;20043;-72
2023/06/17 11:06:59;;;;;;;53.65;50.45;;;26.40;99.90;;;;;;5086686;28;20054;-72
2023/06/17 11:09:27;;;;;;;53.13;49.92;;;26.20;99.90;;;;;;5088510;28;20036;-72
2023/06/17 11:11:55;;;;;;;56.05;52.95;;;26.20;99.90;;;;;;5058627;28;20054;-72
2023/06/17 11:14:22;;;;;;;55.75;52.65;;;26.20;99.90;;;;;;5087848;28;20486;-73
2023/06/17 11:16:49;;;;;;;53.15;50.05;;;26.50;99.90;;;;;;5084868;28;20043;-72
2023/06/17 11:19:16;;;;;;;53.38;50.20;;;26.50;99.90;;;;;;5091700;28;20659;-73
2023/06/17 11:21:43;;;;;;;54.33;51.33;;;26.30;99.90;;;;;;5086086;28;20048;-72
2023/06/17 11:24:11;;;;;;;52.22;49.15;;;26.50;99.90;;;;;;5082157;28;20124;-71
2023/06/17 11:26:38;;;;;;;52.33;49.33;;;26.50;99.90;;;;;;5087654;28;20131;-72
2023/06/17 11:29:05;;;;;;;54.35;51.25;;;26.60;99.90;;;;;;5069677;28;20124;-72
2023/06/17 11:31:40;;;;;;;53.40;50.40;;;26.90;99.90;;;;;;5089069;28;20051;-72
2023/06/17 11:34:08;;;;;;;55.40;52.03;;;26.70;99.90;;;;;;5086917;28;20821;-73
2023/06/17 11:36:38;;;;;;;54.08;50.78;;;27.00;99.90;;;;;;5073060;28;20096;-69
2023/06/17 11:39:05;;;;;;;53.03;49.97;;;26.90;99.80;;;;;;5087012;28;20614;-70
2023/06/17 11:41:33;;;;;;;50.90;47.75;;;26.90;99.20;;;;;;5066942;28;20097;-70
2023/06/17 11:44:00;;;;;;;51.10;48.00;;;27.20;99.10;;;;;;5085727;28;20046;-70
2023/06/17 11:46:27;;;;;;;53.17;49.97;;;27.30;99.90;;;;;;5073422;28;20720;-70
2023/06/17 11:48:56;;;;;;;52.42;49.53;;;27.20;99.20;;;;;;5088480;28;20651;-69
2023/06/17 11:51:23;;;;;;;50.25;47.30;;;26.60;99.90;;;;;;5073822;28;20035;-71
2023/06/17 11:53:50;;;;;;;52.10;48.88;;;26.80;99.00;;;;;;5065149;28;20059;-70
2023/06/17 11:56:21;;;;;;;52.17;48.97;;;26.60;99.90;;;;;;5085212;28;20569;-70
2023/06/17 11:58:51;;;;;;;52.88;49.60;;;26.60;99.90;;;;;;5066309;28;20156;-67
2023/06/17 12:01:24;;;;;;;53.30;50.20;;;26.50;99.90;;;;;;5073241;28;20047;-68
2023/06/17 12:03:54;;;;;;;52.92;49.17;;;26.20;99.90;;;;;;5084143;28;20542;-68
2023/06/17 12:06:22;;;;;;;51.60;48.60;;;25.70;99.90;;;;;;5066857;28;20052;-70
2023/06/17 12:09:00;;;;;;;55.67;52.38;;;26.10;99.90;;;;;;5088225;28;20076;-70
2023/06/17 12:11:30;;;;;;;53.10;49.80;;;26.40;99.90;;;;;;5065916;28;20540;-68
2023/06/17 12:13:58;;;;;;;53.42;50.20;;;26.50;99.90;;;;;;5071662;28;20036;-69
2023/06/17 12:16:36;;;;;;;52.97;49.58;;;26.80;99.90;;;;;;5087387;28;20069;-69
2023/06/17 12:19:12;;;;;;;51.40;48.42;;;27.00;99.90;;;;;;5084820;28;20035;-69
2023/06/17 12:21:39;;;;;;;53.00;49.90;;;27.20;99.90;;;;;;5071569;28;20042;-69
2023/06/17 12:24:07;;;;;;;53.03;49.97;;;27.20;99.50;;;;;;5087201;28;20098;-69
2023/06/17 12:26:34;;;;;;;51.53;48.55;;;27.20;99.90;;;;;;5066981;28;20105;-69
2023/06/17 12:29:01;;;;;;;52.40;49.30;;;27.30;99.90;;;;;;5091056;28;20096;-70
2023/06/17 12:31:42;;;;;;;49.85;47.05;;;27.50;99.90;;;;;;5085087;28;20044;-69
2023/06/17 12:34:10;;;;;;;50.50;47.60;;;27.60;99.50;;;;;;5076991;28;20040;-69